Time;durP1;ratioP1;P1;durP2;ratioP2;P2;SDS_P1;SDS_P2;PMS_P1;PMS_P2;Temp;Humidity;BMP_temperature;BMP_pressure;BME280_temperature;BME280_humidity;BME280_pressure;Samples;Min_cycle;Max_cycle;Signal;HPM_P1;HPM_P2
2023/05/31 00:00:31;;;;;;;2.87;1.73;;;17.70;91.20;;;;;;5005977;28;20292;-81
2023/05/31 00:02:57;;;;;;;4.67;1.97;;;17.70;90.90;;;;;;5006346;28;20213;-79
2023/05/31 00:05:26;;;;;;;3.57;1.77;;;17.70;91.00;;;;;;5006188;28;20292;-79
2023/05/31 00:07:55;;;;;;;2.33;1.57;;;17.60;91.00;;;;;;5006256;28;20891;-79
2023/05/31 00:10:22;;;;;;;3.73;1.80;;;17.60;91.00;;;;;;5006599;28;20280;-79
2023/05/31 00:12:49;;;;;;;2.70;1.50;;;17.60;91.10;;;;;;5005734;28;20213;-79
2023/05/31 00:15:16;;;;;;;2.50;1.70;;;17.50;91.10;;;;;;5005629;28;20298;-80
2023/05/31 00:17:43;;;;;;;4.57;1.90;;;17.50;91.20;;;;;;5006241;28;20316;-79
2023/05/31 00:20:10;;;;;;;2.20;1.93;;;17.50;91.30;;;;;;5006101;28;20216;-79
2023/05/31 00:22:39;;;;;;;4.03;1.80;;;17.40;91.30;;;;;;5005673;28;20794;-78
2023/05/31 00:25:06;;;;;;;2.67;1.60;;;17.40;91.40;;;;;;5005900;28;20706;-79
2023/05/31 00:27:33;;;;;;;2.53;1.60;;;17.40;91.40;;;;;;5005751;28;20818;-79
2023/05/31 00:30:00;;;;;;;4.80;1.70;;;17.40;91.30;;;;;;5005718;28;20304;-79
2023/05/31 00:32:27;;;;;;;2.00;1.80;;;17.30;91.30;;;;;;5005224;28;20201;-80
2023/05/31 00:34:54;;;;;;;5.73;1.60;;;17.20;91.30;;;;;;5005670;28;20204;-80
2023/05/31 00:37:21;;;;;;;5.13;1.80;;;17.10;91.40;;;;;;4986329;28;20301;-80
2023/05/31 00:39:49;;;;;;;1.70;1.60;;;17.10;91.50;;;;;;4993592;28;20307;-80
2023/05/31 00:42:16;;;;;;;2.90;1.80;;;17.00;91.40;;;;;;5005549;28;20779;-80
2023/05/31 00:44:43;;;;;;;3.63;1.73;;;17.10;91.50;;;;;;4988404;28;20316;-80
2023/05/31 00:47:10;;;;;;;2.47;1.60;;;17.10;91.60;;;;;;4985996;28;20740;-80
2023/05/31 00:49:37;;;;;;;2.07;1.60;;;17.10;91.70;;;;;;4991380;28;20304;-79
2023/05/31 00:52:05;;;;;;;2.63;1.70;;;17.00;91.70;;;;;;5021254;28;20871;-79
2023/05/31 00:54:32;;;;;;;2.17;1.73;;;17.00;91.80;;;;;;5006813;28;20663;-80
2023/05/31 00:57:01;;;;;;;1.90;1.53;;;17.00;91.90;;;;;;5007139;28;20213;-79
2023/05/31 00:59:28;;;;;;;2.37;1.83;;;17.00;92.10;;;;;;5006862;28;20280;-79
2023/05/31 01:01:56;;;;;;;1.80;1.70;;;16.90;92.20;;;;;;5006645;28;20317;-81
2023/05/31 01:04:23;;;;;;;3.43;1.80;;;16.90;92.30;;;;;;5006234;28;20299;-81
2023/05/31 01:06:51;;;;;;;4.93;2.00;;;16.80;92.40;;;;;;5005557;28;20214;-81
2023/05/31 01:09:18;;;;;;;2.63;1.70;;;16.80;92.40;;;;;;5005507;28;20732;-82
2023/05/31 01:12:02;;;;;;;2.90;1.80;;;16.80;92.50;;;;;;5009655;28;20619;-80
2023/05/31 01:14:39;;;;;;;2.93;1.80;;;16.80;92.70;;;;;;5008818;28;20686;-82
2023/05/31 01:17:14;;;;;;;3.10;1.73;;;16.70;92.90;;;;;;5008702;28;20274;-81
2023/05/31 01:19:47;;;;;;;2.87;1.90;;;16.70;93.00;;;;;;5000999;28;20208;-81
2023/05/31 01:22:35;;;;;;;4.83;1.50;;;16.60;93.30;;;;;;4994103;28;20707;-80
2023/05/31 01:25:27;;;;;;;4.70;2.00;;;16.50;93.40;;;;;;5009361;28;20236;-82
2023/05/31 01:27:59;;;;;;;4.83;1.83;;;16.50;93.50;;;;;;5009031;28;20198;-80
2023/05/31 01:30:28;;;;;;;3.90;1.80;;;16.40;93.50;;;;;;5008497;28;20209;-79
2023/05/31 01:32:58;;;;;;;3.13;1.60;;;16.40;93.50;;;;;;5008504;28;20324;-77
2023/05/31 01:35:25;;;;;;;2.30;1.60;;;16.40;93.60;;;;;;5008617;28;20316;-77
2023/05/31 01:37:52;;;;;;;1.73;1.63;;;16.40;93.50;;;;;;5008371;28;20731;-77
2023/05/31 01:40:20;;;;;;;1.77;1.67;;;16.30;93.60;;;;;;5008714;28;20232;-77
2023/05/31 01:42:50;;;;;;;2.77;1.77;;;16.30;93.80;;;;;;5008134;28;20264;-77
2023/05/31 01:45:19;;;;;;;2.33;1.60;;;16.30;94.00;;;;;;5008492;28;20288;-77
2023/05/31 01:47:48;;;;;;;2.07;1.97;;;16.20;94.20;;;;;;5025616;28;20217;-78
2023/05/31 01:50:15;;;;;;;5.30;2.40;;;16.20;94.30;;;;;;5015331;28;20313;-79
2023/05/31 01:52:43;;;;;;;5.17;2.00;;;16.20;94.40;;;;;;5008289;28;20288;-81
2023/05/31 01:55:10;;;;;;;4.80;2.10;;;16.10;94.40;;;;;;5008436;28;20648;-82
2023/05/31 01:57:39;;;;;;;2.93;2.00;;;16.10;94.40;;;;;;5008335;28;20220;-82
2023/05/31 02:00:11;;;;;;;2.63;2.30;;;16.10;94.20;;;;;;5008596;28;20292;-82
2023/05/31 02:02:42;;;;;;;4.20;2.00;;;16.00;94.10;;;;;;5008127;28;20232;-79
2023/05/31 02:05:11;;;;;;;3.70;2.03;;;16.10;94.10;;;;;;5008412;28;20236;-80
2023/05/31 02:07:38;;;;;;;5.27;2.07;;;16.00;94.10;;;;;;5008230;28;20236;-80
2023/05/31 02:10:06;;;;;;;2.57;1.90;;;16.00;94.20;;;;;;5008283;28;20296;-80
2023/05/31 02:12:33;;;;;;;7.27;2.63;;;16.00;94.20;;;;;;5008066;28;20300;-81
2023/05/31 02:15:00;;;;;;;2.40;2.20;;;15.90;94.30;;;;;;5007811;28;20328;-79
2023/05/31 02:17:28;;;;;;;3.77;2.00;;;15.80;94.40;;;;;;5004305;28;20642;-78
2023/05/31 02:19:57;;;;;;;2.83;2.47;;;15.80;94.60;;;;;;5004153;28;20202;-78
2023/05/31 02:22:23;;;;;;;2.70;2.27;;;15.80;94.80;;;;;;5003475;28;20234;-82
2023/05/31 02:24:50;;;;;;;2.50;2.23;;;15.70;94.70;;;;;;4995593;28;20300;-80
2023/05/31 02:27:17;;;;;;;3.83;2.70;;;15.70;94.70;;;;;;5000403;28;20934;-80
2023/05/31 02:29:46;;;;;;;3.97;2.00;;;15.70;94.70;;;;;;5002002;28;20296;-79
2023/05/31 02:32:13;;;;;;;4.97;2.27;;;15.70;94.70;;;;;;4996085;28;20210;-79
2023/05/31 02:34:42;;;;;;;4.10;2.33;;;15.70;94.70;;;;;;4990745;28;20198;-80
2023/05/31 02:37:10;;;;;;;4.87;2.10;;;15.70;94.80;;;;;;4986096;28;20206;-79
2023/05/31 02:39:37;;;;;;;2.13;1.90;;;15.60;94.70;;;;;;4992347;28;21052;-80
2023/05/31 02:42:04;;;;;;;3.83;2.00;;;15.60;94.80;;;;;;5005412;28;20300;-79
2023/05/31 02:44:31;;;;;;;2.30;1.93;;;15.50;95.00;;;;;;5005453;28;20218;-80
2023/05/31 02:46:58;;;;;;;9.07;2.30;;;15.40;95.10;;;;;;5005933;28;20300;-79
2023/05/31 02:49:25;;;;;;;2.37;1.90;;;15.40;95.20;;;;;;5005343;28;20202;-80
2023/05/31 02:51:52;;;;;;;2.40;1.80;;;15.40;95.30;;;;;;5004862;28;20209;-78
2023/05/31 02:54:20;;;;;;;2.57;2.10;;;15.40;95.40;;;;;;5005410;28;20218;-80
2023/05/31 02:56:47;;;;;;;3.40;2.20;;;15.40;95.50;;;;;;5005271;28;20248;-79
2023/05/31 02:59:15;;;;;;;2.30;1.90;;;15.40;95.60;;;;;;5004896;28;20225;-81
2023/05/31 03:01:41;;;;;;;3.03;2.00;;;15.30;95.60;;;;;;5004676;28;20233;-80
2023/05/31 03:04:08;;;;;;;2.37;1.80;;;15.20;95.70;;;;;;5000370;28;20209;-80
2023/05/31 03:06:35;;;;;;;2.47;2.20;;;15.20;95.80;;;;;;5004945;28;20215;-78
2023/05/31 03:09:03;;;;;;;2.97;2.27;;;15.20;95.80;;;;;;5005082;28;20660;-78
2023/05/31 03:11:31;;;;;;;3.77;2.00;;;15.30;95.90;;;;;;5005597;28;20220;-78
2023/05/31 03:13:58;;;;;;;3.70;2.27;;;15.20;95.90;;;;;;4994673;28;20735;-78
2023/05/31 03:16:25;;;;;;;2.37;2.17;;;15.20;96.00;;;;;;4985772;28;20636;-78
2023/05/31 03:18:52;;;;;;;2.37;2.00;;;15.20;96.10;;;;;;4986124;28;20216;-78
2023/05/31 03:21:19;;;;;;;3.13;2.67;;;15.20;96.20;;;;;;4985799;28;20218;-78
2023/05/31 03:23:46;;;;;;;2.77;1.77;;;15.20;96.30;;;;;;4996361;28;20788;-78
2023/05/31 03:26:13;;;;;;;4.57;1.83;;;15.20;96.40;;;;;;5005980;28;20202;-78
2023/05/31 03:28:41;;;;;;;4.07;2.13;;;15.10;96.40;;;;;;4998047;28;20210;-78
2023/05/31 03:31:08;;;;;;;4.70;2.33;;;15.10;96.40;;;;;;4986701;28;20324;-78
2023/05/31 03:33:36;;;;;;;2.37;2.17;;;15.10;96.30;;;;;;4986707;28;20266;-78
2023/05/31 03:36:04;;;;;;;3.70;2.40;;;15.10;96.20;;;;;;4986700;28;20684;-78
2023/05/31 03:38:31;;;;;;;3.90;2.17;;;15.10;96.20;;;;;;4989236;28;20568;-78
2023/05/31 03:40:57;;;;;;;3.37;2.30;;;15.10;96.20;;;;;;5006150;28;20699;-78
2023/05/31 03:43:24;;;;;;;3.27;2.20;;;15.10;96.20;;;;;;4999758;28;20654;-78
2023/05/31 03:45:53;;;;;;;3.33;2.10;;;15.10;96.10;;;;;;4986485;28;20302;-78
2023/05/31 03:48:19;;;;;;;8.23;2.50;;;15.10;96.20;;;;;;4986348;28;20681;-78
2023/05/31 03:50:46;;;;;;;7.20;3.00;;;15.10;96.10;;;;;;4996681;28;20475;-78
2023/05/31 03:53:13;;;;;;;2.93;2.20;;;15.10;96.10;;;;;;5006314;28;20292;-78
2023/05/31 03:55:40;;;;;;;5.23;2.07;;;15.10;96.10;;;;;;5006158;28;20296;-78
2023/05/31 03:58:07;;;;;;;8.57;2.73;;;15.10;96.10;;;;;;5005916;28;20292;-78
2023/05/31 04:00:34;;;;;;;4.33;2.13;;;15.10;96.00;;;;;;5006012;28;20283;-78
2023/05/31 04:03:02;;;;;;;4.83;2.47;;;15.10;96.00;;;;;;5005666;28;20881;-78
2023/05/31 04:05:29;;;;;;;2.83;1.93;;;15.10;96.00;;;;;;5006559;28;20249;-78
2023/05/31 04:08:01;;;;;;;5.27;2.70;;;15.10;95.90;;;;;;5005890;28;20213;-78
2023/05/31 04:10:28;;;;;;;8.73;6.03;;;15.10;95.90;;;;;;5005957;28;20200;-78
2023/05/31 04:12:55;;;;;;;7.73;3.10;;;15.10;95.90;;;;;;5006481;28;20213;-78
2023/05/31 04:15:22;;;;;;;5.87;2.80;;;15.10;96.00;;;;;;5005614;28;20677;-78
2023/05/31 04:17:49;;;;;;;9.83;3.23;;;15.10;96.00;;;;;;5006031;28;20495;-78
2023/05/31 04:20:19;;;;;;;6.93;2.63;;;15.10;96.00;;;;;;5005859;28;20214;-79
2023/05/31 04:22:46;;;;;;;7.37;2.60;;;15.20;96.00;;;;;;5003430;28;20605;-79
2023/05/31 04:25:13;;;;;;;5.70;2.80;;;15.10;96.00;;;;;;4986208;28;20300;-78
2023/05/31 04:27:40;;;;;;;3.67;2.10;;;15.10;96.00;;;;;;4986295;28;20297;-79
2023/05/31 04:30:08;;;;;;;4.90;2.80;;;15.20;95.80;;;;;;4986163;28;20587;-78
2023/05/31 04:32:35;;;;;;;4.13;2.50;;;15.10;95.80;;;;;;4986020;28;20337;-78
2023/05/31 04:35:03;;;;;;;5.37;2.43;;;15.10;95.80;;;;;;4991932;28;20209;-79
2023/05/31 04:37:32;;;;;;;4.17;2.37;;;15.10;95.80;;;;;;5005818;28;20209;-78
2023/05/31 04:40:00;;;;;;;11.30;2.80;;;15.20;95.80;;;;;;5005463;28;20216;-77
2023/05/31 04:42:27;;;;;;;5.30;2.60;;;15.20;95.80;;;;;;5006431;28;20256;-78
2023/05/31 04:44:57;;;;;;;7.07;2.80;;;15.10;95.90;;;;;;5006394;28;20245;-77
2023/05/31 04:47:27;;;;;;;5.90;3.03;;;15.10;95.90;;;;;;5009533;28;20193;-77
2023/05/31 04:49:56;;;;;;;6.10;3.00;;;15.20;96.00;;;;;;5009396;28;20202;-77
2023/05/31 04:52:26;;;;;;;6.17;3.00;;;15.20;96.00;;;;;;5009402;28;20218;-77
2023/05/31 04:54:54;;;;;;;7.27;3.43;;;15.20;95.90;;;;;;5008792;28;20218;-78
2023/05/31 04:57:22;;;;;;;5.90;3.10;;;15.30;96.00;;;;;;5008870;28;20324;-79
2023/05/31 04:59:48;;;;;;;6.83;4.00;;;15.30;96.10;;;;;;5008706;28;20565;-77
2023/05/31 05:02:16;;;;;;;6.27;3.90;;;15.30;96.10;;;;;;5008986;28;20210;-77
2023/05/31 05:04:42;;;;;;;9.80;3.90;;;15.30;96.10;;;;;;5003796;28;20242;-78
2023/05/31 05:07:09;;;;;;;11.63;4.00;;;15.30;96.00;;;;;;4989317;28;20240;-77
2023/05/31 05:09:36;;;;;;;8.97;4.73;;;15.30;96.10;;;;;;4989238;28;20210;-77
2023/05/31 05:12:05;;;;;;;11.67;4.53;;;15.40;96.10;;;;;;4989452;28;20301;-79
2023/05/31 05:14:32;;;;;;;9.53;4.67;;;15.40;96.10;;;;;;5004601;28;20210;-77
2023/05/31 05:16:59;;;;;;;12.03;5.03;;;15.50;96.10;;;;;;5008296;28;20210;-77
2023/05/31 05:19:26;;;;;;;9.03;4.30;;;15.50;96.20;;;;;;5008371;28;20676;-77
2023/05/31 05:21:53;;;;;;;8.80;4.43;;;15.50;96.30;;;;;;5008694;28;20237;-77
2023/05/31 05:24:20;;;;;;;10.30;4.87;;;15.60;96.30;;;;;;5007995;28;20236;-78
2023/05/31 05:26:47;;;;;;;9.13;4.23;;;15.60;96.30;;;;;;5008360;28;20209;-77
2023/05/31 05:29:15;;;;;;;7.27;4.30;;;15.60;96.40;;;;;;5008534;28;20212;-77
2023/05/31 05:31:42;;;;;;;13.77;4.10;;;15.60;96.50;;;;;;5008321;28;20209;-77
2023/05/31 05:34:10;;;;;;;13.13;4.53;;;15.60;96.70;;;;;;5008126;28;20683;-77
2023/05/31 05:36:37;;;;;;;7.57;3.50;;;15.70;96.90;;;;;;5007944;28;20672;-77
2023/05/31 05:39:06;;;;;;;7.90;3.33;;;15.70;96.60;;;;;;5008324;28;20765;-78
2023/05/31 05:41:33;;;;;;;7.23;3.30;;;15.80;96.60;;;;;;5007808;28;20790;-77
2023/05/31 05:44:00;;;;;;;10.90;3.80;;;15.80;96.10;;;;;;5007876;28;20237;-78
2023/05/31 05:46:28;;;;;;;5.27;3.70;;;15.80;96.10;;;;;;5007771;28;20209;-81
2023/05/31 05:48:56;;;;;;;8.50;4.27;;;15.90;96.70;;;;;;5008182;28;20318;-77
2023/05/31 05:51:23;;;;;;;9.13;3.53;;;15.90;96.90;;;;;;4989990;28;20218;-77
2023/05/31 05:53:50;;;;;;;9.50;3.70;;;15.90;96.90;;;;;;4988567;28;20241;-77
2023/05/31 05:56:18;;;;;;;9.43;3.20;;;16.00;97.10;;;;;;4988708;28;20233;-77
2023/05/31 05:58:47;;;;;;;12.87;3.53;;;16.10;96.70;;;;;;4988513;28;20468;-77
2023/05/31 06:01:18;;;;;;;10.23;3.93;;;16.10;96.80;;;;;;4988407;28;20293;-77
2023/05/31 06:03:48;;;;;;;7.43;3.17;;;16.20;96.90;;;;;;4988348;28;20228;-77
2023/05/31 06:06:16;;;;;;;9.07;3.77;;;16.20;96.70;;;;;;4988465;28;20205;-77
2023/05/31 06:08:44;;;;;;;11.33;3.53;;;16.20;96.70;;;;;;4987731;28;20567;-77
2023/05/31 06:11:11;;;;;;;5.77;3.07;;;16.20;96.40;;;;;;4988352;28;20214;-77
2023/05/31 06:13:38;;;;;;;6.43;3.03;;;16.20;96.50;;;;;;4997605;28;20208;-78
2023/05/31 06:16:05;;;;;;;6.10;3.23;;;16.30;96.60;;;;;;5007639;28;20636;-77
2023/05/31 06:18:32;;;;;;;3.33;2.80;;;16.30;96.70;;;;;;5007115;28;20690;-77
2023/05/31 06:21:01;;;;;;;10.10;2.77;;;16.30;96.70;;;;;;5007789;28;20220;-78
2023/05/31 06:23:29;;;;;;;7.23;3.10;;;16.30;96.50;;;;;;5007289;28;20225;-78
2023/05/31 06:25:56;;;;;;;11.10;2.73;;;16.30;96.90;;;;;;5007434;28;20205;-77
2023/05/31 06:28:23;;;;;;;6.67;2.70;;;16.30;96.70;;;;;;5007235;28;20320;-77
2023/05/31 06:30:50;;;;;;;8.53;2.97;;;16.40;96.70;;;;;;5007046;28;20240;-77
2023/05/31 06:33:17;;;;;;;5.77;2.60;;;16.40;96.80;;;;;;5007174;28;20320;-77
2023/05/31 06:35:44;;;;;;;6.30;2.90;;;16.50;96.90;;;;;;5006948;28;20214;-77
2023/05/31 06:38:14;;;;;;;6.50;2.77;;;16.50;96.90;;;;;;5007628;28;20221;-77
2023/05/31 06:40:42;;;;;;;4.93;2.63;;;16.50;96.50;;;;;;4987673;28;20217;-78
2023/05/31 06:43:09;;;;;;;2.87;2.53;;;16.60;96.40;;;;;;4991771;28;20573;-77
2023/05/31 06:45:38;;;;;;;11.00;2.90;;;16.70;96.30;;;;;;5006378;28;20704;-77
2023/05/31 06:48:05;;;;;;;5.13;2.57;;;16.70;96.60;;;;;;5006605;28;20660;-77
2023/05/31 06:50:32;;;;;;;4.93;2.80;;;16.80;96.40;;;;;;5007058;28;20209;-77
2023/05/31 06:52:59;;;;;;;7.47;2.73;;;16.80;96.40;;;;;;5006927;28;20240;-77
2023/05/31 06:55:27;;;;;;;6.00;2.77;;;16.90;96.20;;;;;;5007308;28;20217;-77
2023/05/31 06:57:57;;;;;;;6.53;2.80;;;17.00;96.00;;;;;;5007266;28;20210;-77
2023/05/31 07:00:24;;;;;;;6.67;2.90;;;17.00;95.80;;;;;;5006609;28;20672;-77
2023/05/31 07:02:51;;;;;;;6.57;3.13;;;17.10;95.70;;;;;;5006512;28;20209;-77
2023/05/31 07:05:18;;;;;;;5.23;2.50;;;17.20;95.60;;;;;;5006655;28;20263;-77
2023/05/31 07:07:45;;;;;;;5.00;2.47;;;17.20;95.50;;;;;;5006059;28;20210;-77
2023/05/31 07:10:12;;;;;;;11.57;3.07;;;17.20;95.40;;;;;;5006807;28;20209;-78
2023/05/31 07:12:40;;;;;;;4.07;2.70;;;17.30;95.50;;;;;;5005903;28;20967;-78
2023/05/31 07:15:09;;;;;;;6.10;2.40;;;17.30;94.90;;;;;;4986866;28;20305;-77
2023/05/31 07:17:36;;;;;;;10.33;2.30;;;17.30;95.00;;;;;;4986808;28;20744;-77
2023/05/31 07:20:05;;;;;;;6.47;2.40;;;17.40;95.00;;;;;;4986604;28;20732;-77
2023/05/31 07:22:32;;;;;;;4.97;2.60;;;17.40;95.10;;;;;;4986886;28;20907;-77
2023/05/31 07:24:58;;;;;;;8.07;2.37;;;17.50;95.40;;;;;;5006711;28;20246;-77
2023/05/31 07:27:25;;;;;;;5.87;2.23;;;17.50;94.80;;;;;;5006966;28;20300;-77
2023/05/31 07:29:55;;;;;;;12.07;2.80;;;17.50;94.50;;;;;;5006325;28;20288;-77
2023/05/31 07:32:23;;;;;;;4.67;2.07;;;17.60;94.60;;;;;;5006666;28;20283;-77
2023/05/31 07:34:49;;;;;;;4.13;2.60;;;17.60;94.70;;;;;;5005858;28;20301;-77
2023/05/31 07:37:16;;;;;;;4.07;1.97;;;17.60;94.90;;;;;;5006098;28;20763;-77
2023/05/31 07:39:45;;;;;;;6.67;2.40;;;17.70;94.60;;;;;;5006253;28;20289;-77
2023/05/31 07:42:13;;;;;;;2.30;2.10;;;17.70;94.10;;;;;;5006200;28;20241;-77
2023/05/31 07:44:40;;;;;;;2.27;2.07;;;17.70;94.10;;;;;;4989765;28;20241;-77
2023/05/31 07:47:09;;;;;;;3.07;2.10;;;17.80;94.70;;;;;;4997143;28;20301;-77
2023/05/31 07:49:36;;;;;;;11.07;2.80;;;18.00;94.50;;;;;;5005959;28;20288;-77
2023/05/31 07:52:04;;;;;;;1.90;1.70;;;18.10;93.20;;;;;;5006020;28;20746;-77
2023/05/31 07:54:31;;;;;;;6.97;2.20;;;18.10;93.40;;;;;;5005873;28;20209;-77
2023/05/31 07:56:58;;;;;;;17.30;2.83;;;18.20;93.10;;;;;;5005917;28;20716;-77
2023/05/31 07:59:25;;;;;;;8.60;2.80;;;18.30;93.70;;;;;;5005872;28;20723;-77
2023/05/31 08:01:52;;;;;;;2.90;1.93;;;18.30;93.50;;;;;;5005761;28;20291;-76
2023/05/31 08:04:22;;;;;;;5.63;2.00;;;18.30;93.50;;;;;;5005831;28;20231;-77
2023/05/31 08:06:48;;;;;;;4.97;1.80;;;18.40;93.30;;;;;;5005733;28;20201;-77
2023/05/31 08:09:15;;;;;;;17.77;4.07;;;18.50;91.20;;;;;;5005709;28;20324;-77
2023/05/31 08:11:42;;;;;;;6.47;3.07;;;18.50;92.20;;;;;;5005584;28;20653;-77
2023/05/31 08:14:10;;;;;;;5.63;2.10;;;18.60;92.40;;;;;;5005882;28;20292;-77
2023/05/31 08:16:36;;;;;;;2.80;1.80;;;18.70;92.70;;;;;;5005365;28;20232;-77
2023/05/31 08:19:03;;;;;;;2.33;1.30;;;18.70;92.60;;;;;;5005878;28;20640;-77
2023/05/31 08:21:32;;;;;;;1.60;1.50;;;18.80;89.20;;;;;;5009577;28;20308;-77
2023/05/31 08:24:00;;;;;;;5.67;1.67;;;18.90;88.30;;;;;;5009254;28;20588;-77
2023/05/31 08:26:27;;;;;;;3.57;1.57;;;18.90;90.20;;;;;;5009548;28;20297;-77
2023/05/31 08:28:54;;;;;;;2.17;1.67;;;19.00;90.50;;;;;;5009636;28;20212;-77
2023/05/31 08:31:21;;;;;;;2.63;1.53;;;19.10;90.20;;;;;;5009245;28;20210;-77
2023/05/31 08:33:56;;;;;;;3.40;2.07;;;19.10;90.00;;;;;;5009526;28;20305;-77
2023/05/31 08:36:23;;;;;;;2.20;1.70;;;19.20;91.20;;;;;;5009695;28;20417;-77
2023/05/31 08:38:51;;;;;;;8.37;1.80;;;19.30;90.30;;;;;;5008807;28;20292;-77
2023/05/31 08:41:19;;;;;;;6.00;1.83;;;19.30;90.00;;;;;;5008378;28;20316;-77
2023/05/31 08:43:47;;;;;;;3.93;1.83;;;19.40;90.40;;;;;;5007161;28;20241;-77
2023/05/31 08:46:16;;;;;;;12.03;2.47;;;19.40;87.80;;;;;;5007516;28;20210;-77
2023/05/31 08:48:50;;;;;;;4.00;1.53;;;19.50;86.20;;;;;;5008021;28;20214;-77
2023/05/31 08:51:18;;;;;;;8.30;2.27;;;19.60;86.40;;;;;;5007903;28;20232;-77
2023/05/31 08:53:54;;;;;;;3.63;1.73;;;19.70;85.60;;;;;;5007692;28;20297;-77
2023/05/31 08:56:21;;;;;;;2.90;1.98;;;19.80;85.50;;;;;;5007928;28;20194;-77
2023/05/31 08:58:51;;;;;;;7.40;1.70;;;19.80;82.20;;;;;;5008037;28;20212;-77
2023/05/31 09:01:19;;;;;;;6.37;2.20;;;20.00;84.00;;;;;;5007832;28;20293;-77
2023/05/31 09:03:46;;;;;;;3.20;1.87;;;20.10;85.00;;;;;;5008095;28;20233;-77
2023/05/31 09:06:12;;;;;;;8.00;1.80;;;20.20;85.10;;;;;;5008029;28;20680;-77
2023/05/31 09:08:40;;;;;;;4.77;1.63;;;20.30;83.10;;;;;;5007714;28;20896;-79
2023/05/31 09:11:09;;;;;;;2.07;1.40;;;20.30;84.20;;;;;;4990426;28;20206;-77
2023/05/31 09:13:36;;;;;;;3.22;1.70;;;20.20;81.90;;;;;;4988333;28;20214;-77
2023/05/31 09:16:03;;;;;;;3.70;1.40;;;20.20;82.10;;;;;;4988012;28;20649;-77
2023/05/31 09:18:37;;;;;;;3.28;1.70;;;20.30;83.20;;;;;;4987835;28;20308;-77
2023/05/31 09:21:09;;;;;;;2.13;1.63;;;20.40;84.30;;;;;;4988352;28;20273;-77
2023/05/31 09:23:36;;;;;;;4.60;1.70;;;20.50;82.20;;;;;;4991124;28;20205;-77
2023/05/31 09:26:08;;;;;;;5.43;1.50;;;20.50;82.00;;;;;;5007978;28;20247;-77
2023/05/31 09:28:35;;;;;;;2.17;1.70;;;20.50;82.90;;;;;;5007672;28;20208;-77
2023/05/31 09:31:04;;;;;;;3.42;1.70;;;20.60;82.80;;;;;;5006898;28;20221;-77
2023/05/31 09:33:42;;;;;;;54.47;5.88;;;20.80;82.40;;;;;;5007338;28;20236;-77
2023/05/31 09:36:09;;;;;;;2.85;1.98;;;20.90;82.40;;;;;;5007429;28;20205;-77
2023/05/31 09:38:37;;;;;;;7.13;2.17;;;20.90;81.90;;;;;;5007652;28;20661;-77
2023/05/31 09:43:07;;;;;;;3.35;1.33;;;20.90;79.90;;;;;;5103595;27;20686;-75
2023/05/31 09:45:33;;;;;;;2.85;1.50;;;21.00;79.50;;;;;;5103820;28;20293;-75
2023/05/31 09:48:00;;;;;;;5.35;1.67;;;21.10;77.40;;;;;;5084892;28;20246;-75
2023/05/31 09:50:27;;;;;;;4.25;1.55;;;21.10;78.90;;;;;;5083029;28;20262;-75
2023/05/31 09:52:58;;;;;;;2.28;1.70;;;21.20;80.20;;;;;;5083272;28;20306;-76
2023/05/31 09:55:38;;;;;;;3.30;1.42;;;21.30;78.00;;;;;;5083323;28;20219;-76
2023/05/31 09:58:07;;;;;;;1.40;1.30;;;21.30;76.60;;;;;;5083102;28;20203;-76
2023/05/31 10:00:34;;;;;;;3.47;1.45;;;21.30;77.30;;;;;;5082762;28;20580;-76
2023/05/31 10:03:02;;;;;;;1.70;1.52;;;21.40;78.90;;;;;;5083274;28;20245;-76
2023/05/31 10:05:29;;;;;;;3.08;1.92;;;21.50;77.70;;;;;;5082805;28;20866;-76
2023/05/31 10:07:56;;;;;;;1.30;1.20;;;21.60;78.00;;;;;;5083511;28;20210;-77
2023/05/31 10:10:23;;;;;;;1.58;1.48;;;21.70;75.30;;;;;;5082908;28;21002;-77
2023/05/31 10:12:52;;;;;;;2.78;1.52;;;21.60;74.10;;;;;;5084739;28;20214;-76
2023/05/31 10:15:23;;;;;;;2.35;1.70;;;21.60;75.00;;;;;;5102635;28;20206;-76
2023/05/31 10:18:00;;;;;;;4.95;1.60;;;21.70;75.90;;;;;;5102864;28;20293;-76
2023/05/31 10:20:37;;;;;;;1.70;1.58;;;21.80;73.30;;;;;;5103357;28;20202;-76
2023/05/31 10:23:08;;;;;;;1.85;1.60;;;21.90;74.90;;;;;;5098775;28;20215;-77
2023/05/31 10:25:41;;;;;;;2.38;1.60;;;21.90;75.40;;;;;;5083146;28;20195;-76
2023/05/31 10:28:12;;;;;;;2.03;1.38;;;21.90;77.30;;;;;;5083053;28;20310;-76
2023/05/31 10:30:42;;;;;;;3.50;1.60;;;22.10;77.70;;;;;;5084512;28;20259;-76
2023/05/31 10:33:12;;;;;;;1.88;1.40;;;22.20;78.70;;;;;;5086573;28;20329;-76
2023/05/31 10:35:39;;;;;;;5.18;1.88;;;22.40;76.70;;;;;;5082977;28;20295;-76
2023/05/31 10:38:06;;;;;;;1.30;1.20;;;22.40;75.20;;;;;;5082356;28;20246;-76
2023/05/31 10:40:41;;;;;;;2.42;1.40;;;22.60;75.40;;;;;;5082521;28;20314;-76
2023/05/31 10:43:12;;;;;;;1.50;1.38;;;22.40;74.30;;;;;;5082231;28;20687;-76
2023/05/31 10:45:44;;;;;;;2.88;1.40;;;22.60;76.60;;;;;;5082495;28;20214;-76
2023/05/31 10:48:19;;;;;;;3.50;1.83;;;22.70;74.70;;;;;;5082428;28;20306;-76
2023/05/31 10:50:53;;;;;;;2.58;1.40;;;22.90;76.10;;;;;;5082102;28;20206;-76
2023/05/31 10:53:21;;;;;;;2.10;1.25;;;23.10;75.70;;;;;;5075251;28;20214;-76
2023/05/31 10:55:49;;;;;;;4.30;1.85;;;23.20;74.30;;;;;;5051055;28;20306;-76
2023/05/31 10:58:27;;;;;;;1.60;1.50;;;23.30;74.30;;;;;;5048746;28;20216;-76
2023/05/31 11:00:56;;;;;;;6.18;1.58;;;23.50;75.30;;;;;;5048466;28;20781;-76
2023/05/31 11:03:24;;;;;;;1.50;1.40;;;23.60;74.30;;;;;;5048433;28;20318;-77
2023/05/31 11:05:59;;;;;;;15.80;2.47;;;23.60;72.20;;;;;;5053956;28;20203;-76
2023/05/31 11:08:26;;;;;;;1.60;1.50;;;23.60;73.30;;;;;;5068645;28;20218;-76
2023/05/31 11:10:53;;;;;;;2.90;1.48;;;23.60;73.20;;;;;;5068034;28;20273;-76
2023/05/31 11:13:20;;;;;;;1.55;1.40;;;23.70;71.80;;;;;;5068193;28;20298;-76
2023/05/31 11:15:48;;;;;;;1.83;1.10;;;23.60;70.70;;;;;;5067576;28;20275;-76
2023/05/31 11:18:23;;;;;;;2.75;1.25;;;23.60;71.40;;;;;;5068524;28;20214;-76
2023/05/31 11:20:50;;;;;;;2.10;1.20;;;23.80;70.80;;;;;;5067809;28;20572;-76
2023/05/31 11:23:30;;;;;;;1.50;1.20;;;23.70;70.60;;;;;;5068264;28;20239;-76
2023/05/31 11:26:24;;;;;;;1.58;0.95;;;23.80;70.20;;;;;;5068241;28;20282;-76
2023/05/31 11:28:58;;;;;;;1.02;1.00;;;24.00;69.60;;;;;;5031120;28;20309;-76
2023/05/31 11:32:02;;;;;;;8.85;1.70;;;24.10;70.90;;;;;;5067684;28;20314;-77
2023/05/31 11:34:33;;;;;;;1.35;1.00;;;24.40;71.30;;;;;;5067790;28;20226;-76
2023/05/31 11:37:02;;;;;;;0.90;0.90;;;24.70;71.10;;;;;;5068458;28;20203;-76
2023/05/31 11:39:29;;;;;;;7.65;1.23;;;24.80;70.70;;;;;;5067189;28;20210;-76
2023/05/31 11:41:57;;;;;;;1.33;0.98;;;25.10;67.20;;;;;;5067374;28;20336;-76
2023/05/31 11:44:30;;;;;;;9.68;1.52;;;25.10;66.90;;;;;;5067574;28;20231;-76
2023/05/31 11:47:01;;;;;;;1.50;1.40;;;25.30;68.00;;;;;;5067225;28;20290;-76
2023/05/31 11:49:31;;;;;;;1.30;1.20;;;25.40;69.00;;;;;;5067239;28;20246;-76
2023/05/31 11:51:58;;;;;;;2.58;1.10;;;25.40;66.20;;;;;;5050480;28;20211;-76
2023/05/31 11:54:29;;;;;;;0.88;0.80;;;25.40;66.70;;;;;;5047199;28;20232;-76
2023/05/31 11:57:02;;;;;;;0.70;0.70;;;25.30;66.00;;;;;;5047110;28;20192;-76
2023/05/31 11:59:31;;;;;;;1.90;1.10;;;25.40;64.00;;;;;;5047223;28;20188;-76
2023/05/31 12:02:00;;;;;;;0.93;0.93;;;25.40;65.10;;;;;;5051332;28;20243;-76
2023/05/31 12:04:36;;;;;;;0.60;0.60;;;25.50;64.40;;;;;;5066180;28;20244;-77
2023/05/31 12:07:04;;;;;;;2.42;1.00;;;25.70;64.70;;;;;;5067051;28;20191;-76
2023/05/31 12:09:33;;;;;;;1.27;1.02;;;25.90;65.20;;;;;;5066901;28;20199;-76
2023/05/31 12:12:02;;;;;;;0.93;0.85;;;26.10;66.50;;;;;;5067006;28;20369;-76
2023/05/31 12:14:30;;;;;;;1.40;0.88;;;26.20;66.40;;;;;;5081881;28;20215;-77
2023/05/31 12:16:57;;;;;;;5.97;0.80;;;25.90;63.70;;;;;;5075625;28;20204;-76
2023/05/31 12:19:24;;;;;;;0.95;0.90;;;26.00;65.20;;;;;;5066707;28;20763;-76
2023/05/31 12:21:52;;;;;;;1.65;0.80;;;26.30;65.70;;;;;;5066591;28;20325;-76
2023/05/31 12:24:19;;;;;;;1.58;0.88;;;26.40;64.10;;;;;;5073281;28;20299;-76
2023/05/31 12:26:49;;;;;;;2.95;1.23;;;26.50;63.80;;;;;;5066189;28;20214;-76
2023/05/31 12:29:16;;;;;;;1.00;0.90;;;26.70;64.60;;;;;;5066851;28;20211;-76
2023/05/31 12:31:43;;;;;;;4.50;1.08;;;27.00;64.40;;;;;;5066315;28;20390;-76
2023/05/31 12:34:11;;;;;;;2.30;0.80;;;27.20;63.30;;;;;;5066477;28;20302;-76
2023/05/31 12:36:42;;;;;;;1.73;0.98;;;27.30;62.20;;;;;;5066143;28;20211;-76
2023/05/31 12:39:12;;;;;;;1.23;1.08;;;27.40;63.70;;;;;;5066480;28;20223;-76
2023/05/31 12:41:42;;;;;;;2.33;1.00;;;27.60;63.30;;;;;;5065629;28;20301;-76
2023/05/31 12:44:09;;;;;;;0.98;0.85;;;27.80;61.00;;;;;;5065968;28;20294;-76
2023/05/31 12:46:39;;;;;;;0.90;0.90;;;27.80;59.50;;;;;;5065283;28;20207;-76
2023/05/31 12:49:20;;;;;;;1.35;0.93;;;27.80;59.00;;;;;;5066228;28;20551;-76
2023/05/31 12:51:48;;;;;;;1.15;1.05;;;27.90;59.30;;;;;;5065519;28;20206;-76
2023/05/31 12:54:18;;;;;;;3.13;1.17;;;27.80;58.50;;;;;;5065963;28;20326;-76